Time;durP1;ratioP1;P1;durP2;ratioP2;P2;SDS_P1;SDS_P2;PMS_P1;PMS_P2;Temp;Humidity;BMP_temperature;BMP_pressure;BME280_temperature;BME280_humidity;BME280_pressure;Samples;Min_cycle;Max_cycle;Signal;HPM_P1;HPM_P2
2022/01/05 00:01:15;;;;;;;10.02;1.95;;;;;;;;;;5076096;28;20040;-89
2022/01/05 00:03:41;;;;;;;9.48;1.90;;;;;;;;;;5105714;28;20075;-87
2022/01/05 00:06:07;;;;;;;12.45;2.58;;;;;;;;;;5080263;28;20063;-88
2022/01/05 00:08:34;;;;;;;8.95;2.13;;;;;;;;;;5080899;28;20529;-90
2022/01/05 00:11:00;;;;;;;11.60;1.92;;;;;;;;;;5073650;28;20043;-88
2022/01/05 00:13:26;;;;;;;9.95;2.00;;;;;;;;;;5105701;28;20595;-90
2022/01/05 00:15:53;;;;;;;11.30;2.15;;;;;;;;;;5072808;28;20036;-89
2022/01/05 00:18:19;;;;;;;11.63;2.50;;;;;;;;;;5083346;28;20036;-88
2022/01/05 00:20:45;;;;;;;10.23;2.38;;;;;;;;;;5094277;28;20043;-89
2022/01/05 00:23:11;;;;;;;10.73;1.98;;;;;;;;;;5091296;28;20161;-90
2022/01/05 00:25:38;;;;;;;8.48;2.15;;;;;;;;;;5092464;28;20039;-90
2022/01/05 00:28:04;;;;;;;13.25;2.90;;;;;;;;;;5081517;28;20032;-90
2022/01/05 00:30:31;;;;;;;9.10;2.25;;;;;;;;;;5071857;28;20032;-90
2022/01/05 00:32:57;;;;;;;9.65;1.98;;;;;;;;;;5105214;28;20040;-89
2022/01/05 00:35:23;;;;;;;11.18;2.42;;;;;;;;;;5077707;28;20031;-89
2022/01/05 00:37:49;;;;;;;8.10;1.80;;;;;;;;;;5099167;28;20135;-89
2022/01/05 00:40:16;;;;;;;10.57;2.05;;;;;;;;;;5085958;28;20665;-87
2022/01/05 00:42:45;;;;;;;11.35;2.58;;;;;;;;;;5093435;28;20480;-89
2022/01/05 00:45:12;;;;;;;7.20;1.67;;;;;;;;;;5103376;28;20036;-90
2022/01/05 00:47:38;;;;;;;10.15;1.98;;;;;;;;;;5098212;28;20059;-89
2022/01/05 00:50:04;;;;;;;11.18;2.13;;;;;;;;;;5095131;28;20083;-89
2022/01/05 00:52:30;;;;;;;12.30;2.45;;;;;;;;;;5087790;28;20077;-90
2022/01/05 00:54:56;;;;;;;10.18;2.28;;;;;;;;;;5094485;28;20039;-89
2022/01/05 00:57:22;;;;;;;8.82;2.00;;;;;;;;;;5100122;28;20048;-87
2022/01/05 00:59:48;;;;;;;12.00;2.63;;;;;;;;;;5101210;28;20586;-89
2022/01/05 01:02:15;;;;;;;8.75;2.30;;;;;;;;;;5075078;28;20040;-89
2022/01/05 01:04:41;;;;;;;9.25;2.05;;;;;;;;;;5087314;28;20075;-88
2022/01/05 01:07:08;;;;;;;13.32;2.80;;;;;;;;;;5096179;28;20096;-88
2022/01/05 01:09:34;;;;;;;10.45;2.10;;;;;;;;;;5079448;28;20483;-87
2022/01/05 01:12:00;;;;;;;11.63;2.40;;;;;;;;;;5104468;28;20039;-89
2022/01/05 01:14:26;;;;;;;12.57;2.92;;;;;;;;;;5075126;28;20032;-88
2022/01/05 01:17:22;;;;;;;14.88;2.75;;;;;;;;;;5083937;28;20564;-89
2022/01/05 01:20:07;;;;;;;16.73;2.83;;;;;;;;;;5100861;28;20046;-89
2022/01/05 01:22:34;;;;;;;12.70;2.65;;;;;;;;;;5071526;28;20441;-89
2022/01/05 01:25:01;;;;;;;13.93;2.47;;;;;;;;;;5074047;28;20487;-89
2022/01/05 01:27:27;;;;;;;13.80;3.20;;;;;;;;;;5084620;28;20044;-89
2022/01/05 01:29:53;;;;;;;10.77;3.03;;;;;;;;;;5074835;28;20585;-89
2022/01/05 01:32:20;;;;;;;10.05;2.72;;;;;;;;;;5086333;28;20047;-91
2022/01/05 01:34:46;;;;;;;12.10;2.80;;;;;;;;;;5080230;28;20063;-87
2022/01/05 01:37:12;;;;;;;7.47;2.30;;;;;;;;;;5078161;28;20040;-87
2022/01/05 01:39:38;;;;;;;13.23;2.25;;;;;;;;;;5087152;28;20122;-88
2022/01/05 01:42:06;;;;;;;13.70;2.38;;;;;;;;;;5075505;28;20065;-88
2022/01/05 01:44:33;;;;;;;12.45;2.60;;;;;;;;;;5065537;28;20115;-89
2022/01/05 01:47:01;;;;;;;10.20;2.20;;;;;;;;;;5083196;28;20056;-90
2022/01/05 01:49:28;;;;;;;12.10;2.03;;;;;;;;;;5074159;28;20040;-87
2022/01/05 01:51:54;;;;;;;11.57;2.28;;;;;;;;;;5086331;28;20032;-90
2022/01/05 01:54:21;;;;;;;9.45;2.08;;;;;;;;;;5070602;28;20551;-89
2022/01/05 01:56:48;;;;;;;8.63;2.10;;;;;;;;;;5099542;28;20044;-87
2022/01/05 01:59:14;;;;;;;9.95;2.50;;;;;;;;;;5074389;28;20298;-90
2022/01/05 02:01:41;;;;;;;11.38;2.75;;;;;;;;;;5090406;28;20088;-89
2022/01/05 02:04:07;;;;;;;13.48;2.78;;;;;;;;;;5099755;28;20528;-88
2022/01/05 02:06:34;;;;;;;10.05;2.65;;;;;;;;;;5082414;28;20036;-88
2022/01/05 02:09:00;;;;;;;11.80;2.28;;;;;;;;;;5091375;28;20036;-88
2022/01/05 02:11:27;;;;;;;11.52;2.17;;;;;;;;;;5109096;28;20037;-88
2022/01/05 02:13:53;;;;;;;12.43;2.30;;;;;;;;;;5098709;28;20047;-89
2022/01/05 02:16:20;;;;;;;9.18;2.00;;;;;;;;;;5099953;28;20044;-86
2022/01/05 02:18:59;;;;;;;7.35;2.20;;;;;;;;;;5089916;28;20031;-88
2022/01/05 02:21:42;;;;;;;12.77;2.63;;;;;;;;;;5078925;28;20244;-88
2022/01/05 02:24:09;;;;;;;8.60;2.45;;;;;;;;;;5083452;28;20048;-88
2022/01/05 02:26:35;;;;;;;11.88;2.25;;;;;;;;;;5105850;28;20076;-89
2022/01/05 02:29:02;;;;;;;10.05;2.53;;;;;;;;;;5077989;28;20036;-88
2022/01/05 02:31:28;;;;;;;11.27;2.42;;;;;;;;;;5088123;28;20036;-88
2022/01/05 02:33:55;;;;;;;11.70;2.97;;;;;;;;;;5084950;28;20085;-89
2022/01/05 02:36:21;;;;;;;12.60;2.20;;;;;;;;;;5079897;28;20140;-87
2022/01/05 02:38:48;;;;;;;7.53;2.20;;;;;;;;;;5107735;28;20068;-88
2022/01/05 02:41:15;;;;;;;17.60;3.72;;;;;;;;;;5079533;28;20039;-90
2022/01/05 02:43:42;;;;;;;11.82;2.92;;;;;;;;;;5067604;28;20475;-88
2022/01/05 02:46:16;;;;;;;6.72;2.78;;;;;;;;;;5104626;28;20035;-88
2022/01/05 02:48:43;;;;;;;9.98;2.72;;;;;;;;;;5057288;28;20051;-89
2022/01/05 02:51:10;;;;;;;12.07;2.80;;;;;;;;;;5080227;28;20032;-89
2022/01/05 02:53:36;;;;;;;14.38;2.83;;;;;;;;;;5066690;28;20036;-89
2022/01/05 02:56:03;;;;;;;13.93;2.67;;;;;;;;;;5085782;28;20047;-88
2022/01/05 02:58:29;;;;;;;12.63;2.58;;;;;;;;;;5070652;28;20127;-87
2022/01/05 03:00:56;;;;;;;12.65;2.30;;;;;;;;;;5081978;28;20071;-89
2022/01/05 03:03:25;;;;;;;13.13;2.53;;;;;;;;;;5068010;28;20363;-87
2022/01/05 03:05:51;;;;;;;11.90;2.95;;;;;;;;;;5091287;28;20040;-89
2022/01/05 03:08:17;;;;;;;14.55;3.15;;;;;;;;;;5058690;28;20255;-87
2022/01/05 03:10:45;;;;;;;13.15;2.95;;;;;;;;;;5079158;28;20048;-87
2022/01/05 03:13:12;;;;;;;12.90;2.92;;;;;;;;;;5071304;28;20062;-88
2022/01/05 03:15:38;;;;;;;13.40;3.40;;;;;;;;;;5063135;28;20496;-88
2022/01/05 03:18:05;;;;;;;14.90;2.47;;;;;;;;;;5074872;28;20090;-87
2022/01/05 03:20:32;;;;;;;14.82;3.30;;;;;;;;;;5071501;28;20407;-89
2022/01/05 03:22:59;;;;;;;13.82;3.83;;;;;;;;;;5072647;28;20048;-89
2022/01/05 03:25:47;;;;;;;16.40;3.35;;;;;;;;;;5108240;28;20042;-87
2022/01/05 03:28:13;;;;;;;13.27;2.88;;;;;;;;;;5056738;28;20048;-88
2022/01/05 03:30:40;;;;;;;10.85;2.88;;;;;;;;;;5056674;28;20092;-87
2022/01/05 03:33:11;;;;;;;14.52;3.20;;;;;;;;;;5090929;28;20608;-87
2022/01/05 03:35:40;;;;;;;12.40;2.65;;;;;;;;;;5059934;28;20036;-88
2022/01/05 03:38:16;;;;;;;19.90;4.18;;;;;;;;;;5088087;28;20062;-90
2022/01/05 03:40:43;;;;;;;14.75;3.55;;;;;;;;;;5056507;28;20115;-90
2022/01/05 03:43:12;;;;;;;12.20;3.10;;;;;;;;;;5072809;28;20036;-89
2022/01/05 03:45:38;;;;;;;15.20;3.05;;;;;;;;;;5075306;28;20126;-89
2022/01/05 03:48:09;;;;;;;14.55;2.70;;;;;;;;;;5062155;28;20562;-89
2022/01/05 03:50:36;;;;;;;12.43;3.33;;;;;;;;;;5066709;28;20047;-88
2022/01/05 03:53:04;;;;;;;15.77;3.15;;;;;;;;;;5087115;28;20050;-88
2022/01/05 03:55:35;;;;;;;13.23;2.75;;;;;;;;;;5067435;28;20493;-87
2022/01/05 03:58:05;;;;;;;14.07;3.03;;;;;;;;;;5059457;28;20051;-89
2022/01/05 04:00:31;;;;;;;15.10;3.35;;;;;;;;;;5056209;28;20134;-87
2022/01/05 04:02:59;;;;;;;14.25;2.85;;;;;;;;;;5056182;28;20530;-88
2022/01/05 04:05:25;;;;;;;15.85;3.30;;;;;;;;;;5072146;28;20495;-91
2022/01/05 04:07:52;;;;;;;13.20;3.83;;;;;;;;;;5088732;28;20087;-90
2022/01/05 04:10:19;;;;;;;18.95;3.38;;;;;;;;;;5066170;28;20036;-89
2022/01/05 04:12:45;;;;;;;11.90;2.83;;;;;;;;;;5075441;28;20086;-90
2022/01/05 04:15:11;;;;;;;12.43;3.33;;;;;;;;;;5059039;28;20097;-89
2022/01/05 04:17:38;;;;;;;13.75;3.33;;;;;;;;;;5069879;28;20403;-89
2022/01/05 04:20:04;;;;;;;16.23;3.15;;;;;;;;;;5060319;28;20362;-86
2022/01/05 04:22:32;;;;;;;14.50;3.13;;;;;;;;;;5056074;28;20407;-89
2022/01/05 04:24:58;;;;;;;15.10;2.72;;;;;;;;;;5086963;28;20043;-88
2022/01/05 04:27:48;;;;;;;15.32;2.97;;;;;;;;;;5092888;28;20127;-89
2022/01/05 04:30:14;;;;;;;18.80;2.60;;;;;;;;;;5062674;28;20119;-89
2022/01/05 04:32:40;;;;;;;10.15;3.10;;;;;;;;;;5051722;28;20098;-89
2022/01/05 04:35:07;;;;;;;12.32;3.22;;;;;;;;;;5068284;28;20040;-88
2022/01/05 04:37:34;;;;;;;13.18;2.30;;;;;;;;;;5064295;28;20078;-87
2022/01/05 04:40:01;;;;;;;13.93;2.97;;;;;;;;;;5063257;28;20097;-89
2022/01/05 04:42:27;;;;;;;11.88;2.67;;;;;;;;;;5055083;28;20079;-88
2022/01/05 04:44:57;;;;;;;11.02;2.40;;;;;;;;;;5071756;28;20036;-88
2022/01/05 04:47:23;;;;;;;12.90;2.70;;;;;;;;;;5063221;28;20100;-87
2022/01/05 04:49:49;;;;;;;12.80;2.35;;;;;;;;;;5067092;28;20084;-85
2022/01/05 04:52:15;;;;;;;11.10;2.47;;;;;;;;;;5088088;28;20043;-89
2022/01/05 04:54:42;;;;;;;13.70;2.88;;;;;;;;;;5058378;28;20035;-91
2022/01/05 04:57:08;;;;;;;13.25;2.70;;;;;;;;;;5068143;28;20044;-86
2022/01/05 04:59:35;;;;;;;11.13;2.17;;;;;;;;;;5055167;28;20093;-88
2022/01/05 05:02:01;;;;;;;10.48;2.38;;;;;;;;;;5069980;28;20108;-87
2022/01/05 05:04:28;;;;;;;13.73;2.30;;;;;;;;;;5055829;28;20040;-87
2022/01/05 05:06:54;;;;;;;10.32;2.08;;;;;;;;;;5078785;28;20071;-87
2022/01/05 05:09:20;;;;;;;11.77;2.20;;;;;;;;;;5073330;28;20044;-87
2022/01/05 05:11:47;;;;;;;13.85;2.13;;;;;;;;;;5086889;28;20040;-88
2022/01/05 05:14:13;;;;;;;16.58;3.78;;;;;;;;;;5058352;28;20036;-88
2022/01/05 05:16:39;;;;;;;10.05;2.78;;;;;;;;;;5068425;28;20028;-87
2022/01/05 05:19:05;;;;;;;12.45;2.50;;;;;;;;;;5064692;28;20110;-89
2022/01/05 05:21:32;;;;;;;14.23;2.70;;;;;;;;;;5060903;28;20483;-87
2022/01/05 05:23:58;;;;;;;11.10;2.67;;;;;;;;;;5052302;28;20040;-87
2022/01/05 05:26:24;;;;;;;10.23;2.13;;;;;;;;;;5091546;28;20075;-87
2022/01/05 05:28:50;;;;;;;13.30;2.50;;;;;;;;;;5081499;28;20044;-89
2022/01/05 05:31:16;;;;;;;16.42;2.63;;;;;;;;;;5067741;28;20031;-89
2022/01/05 05:33:44;;;;;;;12.98;3.25;;;;;;;;;;5090209;28;20508;-85
2022/01/05 05:36:10;;;;;;;13.23;2.88;;;;;;;;;;5058881;28;20031;-86
2022/01/05 05:38:37;;;;;;;16.17;3.58;;;;;;;;;;5065715;28;20185;-88
2022/01/05 05:41:04;;;;;;;9.85;2.90;;;;;;;;;;5067044;28;20063;-87
2022/01/05 05:43:30;;;;;;;13.85;2.60;;;;;;;;;;5074335;28;20044;-89
2022/01/05 05:45:57;;;;;;;14.73;3.42;;;;;;;;;;5069536;28;20040;-88
2022/01/05 05:48:23;;;;;;;13.48;3.50;;;;;;;;;;5062238;28;20051;-88
2022/01/05 05:50:49;;;;;;;13.00;3.10;;;;;;;;;;5061473;28;20051;-87
2022/01/05 05:53:16;;;;;;;15.25;3.40;;;;;;;;;;5069923;28;20035;-87
2022/01/05 05:55:48;;;;;;;13.75;3.45;;;;;;;;;;5075097;28;20126;-87
2022/01/05 05:58:14;;;;;;;12.23;3.63;;;;;;;;;;5074605;28;20036;-87
2022/01/05 06:00:41;;;;;;;13.90;3.03;;;;;;;;;;5061915;28;20113;-90
2022/01/05 06:03:10;;;;;;;16.55;3.13;;;;;;;;;;5056933;28;20537;-87
2022/01/05 06:05:37;;;;;;;16.52;3.53;;;;;;;;;;5086392;28;20374;-86
2022/01/05 06:08:04;;;;;;;20.98;3.80;;;;;;;;;;5062465;28;20044;-86
2022/01/05 06:10:31;;;;;;;17.17;3.67;;;;;;;;;;5078258;28;20147;-86
2022/01/05 06:15:59;;;;;;;19.33;3.85;;;;;;;;;;5068385;28;20040;-85
2022/01/05 06:19:02;;;;;;;17.98;3.63;;;;;;;;;;5083276;28;20038;-87
2022/01/05 06:32:05;;;;;;;16.85;3.30;;;;;;;;;;4951472;28;20121;-84
2022/01/05 06:34:35;;;;;;;14.60;3.33;;;;;;;;;;4965804;28;20049;-86
2022/01/05 06:37:19;;;;;;;17.00;3.10;;;;;;;;;;4979387;28;20045;-86
2022/01/05 06:39:57;;;;;;;16.92;3.28;;;;;;;;;;4996299;28;20049;-85
2022/01/05 06:42:23;;;;;;;10.90;2.83;;;;;;;;;;5004823;28;20041;-85
2022/01/05 06:44:55;;;;;;;15.68;3.15;;;;;;;;;;4989470;28;20046;-86
2022/01/05 06:48:02;;;;;;;17.90;3.53;;;;;;;;;;4917623;28;20483;-85
2022/01/05 06:50:33;;;;;;;10.82;3.33;;;;;;;;;;4899747;29;20052;-86
2022/01/05 06:53:07;;;;;;;14.60;3.40;;;;;;;;;;4955301;28;20505;-86
2022/01/05 06:55:49;;;;;;;16.75;3.08;;;;;;;;;;4953574;28;20094;-87
2022/01/05 06:58:45;;;;;;;11.10;2.60;;;;;;;;;;4975965;28;20124;-85
2022/01/05 07:04:47;;;;;;;15.25;3.10;;;;;;;;;;5003504;28;20033;-84
2022/01/05 07:11:27;;;;;;;12.93;3.25;;;;;;;;;;5026991;28;20618;-85
2022/01/05 07:14:14;;;;;;;14.63;3.38;;;;;;;;;;4986471;28;20050;-86
2022/01/05 07:16:49;;;;;;;11.00;3.08;;;;;;;;;;4995572;28;20045;-86
2022/01/05 07:19:34;;;;;;;13.95;2.35;;;;;;;;;;5020333;28;20539;-86
2022/01/05 07:25:06;;;;;;;8.88;1.92;;;;;;;;;;5026048;28;20045;-87
2022/01/05 07:27:51;;;;;;;7.07;1.60;;;;;;;;;;5039183;28;20043;-85
2022/01/05 07:33:24;;;;;;;10.60;1.67;;;;;;;;;;5045005;28;20606;-87
2022/01/05 07:35:53;;;;;;;;;;;;;;;;;;5061210;28;20332;-85
2022/01/05 07:38:23;;;;;;;10.25;1.77;;;;;;;;;;5072598;28;19967;-86
2022/01/05 07:40:53;;;;;;;13.80;2.35;;;;;;;;;;5087791;28;20048;-84
2022/01/05 07:43:46;;;;;;;11.65;2.17;;;;;;;;;;5059329;28;20048;-88
2022/01/05 07:47:00;;;;;;;10.77;1.73;;;;;;;;;;5051364;28;20052;-86
2022/01/05 07:50:09;;;;;;;8.70;1.70;;;;;;;;;;5003409;28;20060;-86
2022/01/05 07:53:09;;;;;;;13.40;1.90;;;;;;;;;;5053502;28;20116;-84
2022/01/05 07:56:04;;;;;;;9.88;2.20;;;;;;;;;;5034156;28;20359;-85
2022/01/05 07:58:30;;;;;;;7.22;1.70;;;;;;;;;;5016207;28;20399;-86
2022/01/05 08:00:57;;;;;;;12.00;2.15;;;;;;;;;;5019292;28;20048;-86
2022/01/05 08:03:25;;;;;;;9.18;1.83;;;;;;;;;;5044787;28;20203;-85
2022/01/05 08:05:51;;;;;;;10.32;1.77;;;;;;;;;;5039431;28;20044;-87
2022/01/05 08:08:17;;;;;;;13.27;2.35;;;;;;;;;;5042371;28;20119;-86
2022/01/05 08:10:44;;;;;;;13.85;2.22;;;;;;;;;;5036911;28;20044;-85
2022/01/05 08:13:10;;;;;;;17.50;2.63;;;;;;;;;;5045932;28;20053;-84
2022/01/05 08:15:36;;;;;;;11.90;2.25;;;;;;;;;;5035543;28;20040;-85
2022/01/05 08:18:03;;;;;;;9.75;1.90;;;;;;;;;;5072205;28;20195;-90
2022/01/05 08:20:29;;;;;;;14.48;2.30;;;;;;;;;;5052748;28;20506;-85
2022/01/05 08:22:55;;;;;;;13.98;2.55;;;;;;;;;;5054400;28;20123;-88
2022/01/05 08:25:21;;;;;;;9.35;1.60;;;;;;;;;;5076358;28;20402;-89
2022/01/05 08:27:48;;;;;;;11.82;2.50;;;;;;;;;;5093798;28;20502;-91
2022/01/05 08:30:16;;;;;;;13.52;2.45;;;;;;;;;;5063128;28;20127;-88
2022/01/05 08:32:42;;;;;;;8.98;1.98;;;;;;;;;;5072822;28;20087;-86
2022/01/05 08:35:10;;;;;;;6.97;1.88;;;;;;;;;;5069927;28;20102;-85
2022/01/05 08:37:36;;;;;;;11.73;1.90;;;;;;;;;;5064150;28;20036;-87
2022/01/05 08:40:04;;;;;;;9.82;1.80;;;;;;;;;;5062025;28;20098;-87
2022/01/05 08:42:30;;;;;;;12.48;1.92;;;;;;;;;;5087901;28;20046;-87
2022/01/05 08:44:57;;;;;;;10.15;1.88;;;;;;;;;;5059063;28;20036;-84
2022/01/05 08:47:24;;;;;;;10.20;1.40;;;;;;;;;;5083442;28;20064;-90
2022/01/05 08:49:50;;;;;;;7.97;1.80;;;;;;;;;;5061947;28;20071;-87
2022/01/05 08:52:24;;;;;;;8.65;2.50;;;;;;;;;;5087775;28;20082;-85
2022/01/05 08:54:54;;;;;;;9.70;2.13;;;;;;;;;;5056182;28;20075;-86
2022/01/05 08:57:21;;;;;;;12.85;2.38;;;;;;;;;;5058096;28;20069;-82
2022/01/05 08:59:47;;;;;;;11.20;1.98;;;;;;;;;;5077134;28;20044;-82
2022/01/05 09:02:15;;;;;;;13.93;2.92;;;;;;;;;;5087761;28;20118;-82
2022/01/05 09:04:41;;;;;;;13.27;2.40;;;;;;;;;;5076934;28;20517;-83
2022/01/05 09:07:08;;;;;;;13.63;2.63;;;;;;;;;;5091711;28;20035;-83
2022/01/05 09:09:34;;;;;;;12.23;2.25;;;;;;;;;;5078132;28;20052;-81
2022/01/05 09:12:00;;;;;;;14.23;2.70;;;;;;;;;;5087383;28;20075;-82
2022/01/05 09:14:26;;;;;;;15.82;2.63;;;;;;;;;;5057693;28;20035;-82
2022/01/05 09:16:53;;;;;;;12.10;2.33;;;;;;;;;;5076941;28;20043;-86
2022/01/05 09:19:19;;;;;;;18.05;2.70;;;;;;;;;;5090411;28;20051;-82
2022/01/05 09:21:49;;;;;;;9.88;2.00;;;;;;;;;;5074762;28;20036;-81
2022/01/05 09:24:18;;;;;;;11.90;2.58;;;;;;;;;;5086543;28;20055;-81
2022/01/05 09:26:44;;;;;;;12.35;2.38;;;;;;;;;;5054631;28;20074;-82
2022/01/05 09:29:11;;;;;;;16.67;2.45;;;;;;;;;;5060966;28;20040;-82
2022/01/05 09:31:37;;;;;;;11.77;1.90;;;;;;;;;;5083391;28;20043;-82
2022/01/05 09:34:04;;;;;;;11.68;2.17;;;;;;;;;;5068498;28;20042;-82
2022/01/05 09:36:34;;;;;;;17.00;2.55;;;;;;;;;;5090486;28;20047;-82
2022/01/05 09:42:05;;;;;;;8.63;2.13;;;;;;;;;;5082695;28;20410;-82
2022/01/05 09:44:32;;;;;;;6.63;1.50;;;;;;;;;;5061664;28;20035;-82
2022/01/05 09:47:11;;;;;;;9.30;1.80;;;;;;;;;;5086333;28;20047;-83
2022/01/05 09:49:38;;;;;;;11.77;2.15;;;;;;;;;;5083337;28;20289;-82
2022/01/05 09:52:40;;;;;;;10.43;2.08;;;;;;;;;;5069302;28;20079;-82
2022/01/05 09:55:08;;;;;;;11.43;2.08;;;;;;;;;;5067073;28;20395;-82
2022/01/05 09:57:34;;;;;;;13.35;2.53;;;;;;;;;;5077531;28;20048;-84
2022/01/05 10:00:01;;;;;;;10.73;2.22;;;;;;;;;;5085363;28;20454;-82
2022/01/05 10:02:28;;;;;;;12.05;2.40;;;;;;;;;;5090924;28;20050;-85
2022/01/05 10:04:55;;;;;;;10.88;2.00;;;;;;;;;;5079063;28;20051;-84
2022/01/05 10:07:21;;;;;;;14.93;3.10;;;;;;;;;;5093623;28;20569;-84
2022/01/05 10:09:49;;;;;;;16.83;2.63;;;;;;;;;;5093708;28;20039;-84
2022/01/05 10:12:16;;;;;;;16.52;2.72;;;;;;;;;;5080505;28;20530;-84
2022/01/05 10:14:43;;;;;;;16.50;2.50;;;;;;;;;;5085380;28;20278;-85
2022/01/05 10:17:38;;;;;;;11.50;2.33;;;;;;;;;;5074417;28;20483;-83
2022/01/05 10:20:07;;;;;;;;;;;;;;;;;;5083453;28;20032;-82
2022/01/05 10:22:35;;;;;;;12.32;2.38;;;;;;;;;;5079760;28;20291;-84
2022/01/05 10:25:03;;;;;;;14.93;3.25;;;;;;;;;;5073170;28;20093;-82
2022/01/05 10:27:29;;;;;;;13.23;2.60;;;;;;;;;;5066574;28;20429;-83
2022/01/05 10:30:05;;;;;;;15.20;3.63;;;;;;;;;;5081350;28;20070;-84
2022/01/05 10:32:33;;;;;;;12.98;2.60;;;;;;;;;;5076710;28;20460;-83
2022/01/05 10:35:05;;;;;;;11.32;2.50;;;;;;;;;;5078403;28;20410;-83
2022/01/05 10:37:32;;;;;;;13.15;2.65;;;;;;;;;;5085866;28;20127;-84
2022/01/05 10:40:04;;;;;;;15.07;2.55;;;;;;;;;;5087297;28;20127;-82
2022/01/05 10:42:34;;;;;;;12.30;3.40;;;;;;;;;;5061892;28;20566;-83
2022/01/05 10:45:02;;;;;;;15.77;3.58;;;;;;;;;;5076319;28;20044;-83
2022/01/05 10:47:29;;;;;;;15.77;2.83;;;;;;;;;;5084622;28;20071;-83
2022/01/05 10:49:58;;;;;;;13.18;2.35;;;;;;;;;;5095911;28;20126;-83
2022/01/05 10:52:29;;;;;;;15.43;2.78;;;;;;;;;;5051035;28;20232;-82
2022/01/05 10:54:56;;;;;;;12.27;2.95;;;;;;;;;;5074723;28;20537;-83
2022/01/05 10:57:23;;;;;;;11.68;2.30;;;;;;;;;;5073794;28;20036;-82
2022/01/05 10:59:50;;;;;;;15.35;2.50;;;;;;;;;;5064194;28;20039;-82
2022/01/05 11:02:24;;;;;;;12.20;2.85;;;;;;;;;;5061983;28;20040;-84
2022/01/05 11:04:51;;;;;;;13.63;3.42;;;;;;;;;;5052156;28;20511;-85
2022/01/05 11:07:26;;;;;;;17.63;3.28;;;;;;;;;;5073258;28;20040;-82
2022/01/05 11:10:12;;;;;;;13.95;3.13;;;;;;;;;;5086197;28;20043;-82
2022/01/05 11:12:42;;;;;;;15.02;3.20;;;;;;;;;;5057190;28;20049;-84
2022/01/05 11:15:18;;;;;;;17.08;3.72;;;;;;;;;;5063275;28;20043;-83
2022/01/05 11:18:04;;;;;;;14.38;3.42;;;;;;;;;;5064025;28;20059;-83
2022/01/05 11:20:30;;;;;;;15.43;3.80;;;;;;;;;;5031220;28;20458;-83
2022/01/05 11:22:56;;;;;;;16.38;3.33;;;;;;;;;;5055038;28;20045;-84
2022/01/05 11:25:23;;;;;;;16.42;3.53;;;;;;;;;;5065559;28;20055;-83
2022/01/05 11:27:50;;;;;;;18.42;3.20;;;;;;;;;;5039108;28;20538;-84
2022/01/05 11:30:16;;;;;;;15.90;3.80;;;;;;;;;;5053535;28;20041;-85
2022/01/05 11:32:43;;;;;;;16.02;4.07;;;;;;;;;;5062928;28;20040;-83
2022/01/05 11:35:09;;;;;;;15.52;3.53;;;;;;;;;;5043445;28;20107;-84
2022/01/05 11:37:35;;;;;;;17.50;4.47;;;;;;;;;;5054510;28;20070;-85
2022/01/05 11:40:04;;;;;;;18.77;4.10;;;;;;;;;;5070001;28;20044;-85
2022/01/05 11:42:32;;;;;;;14.05;4.00;;;;;;;;;;5054806;28;20448;-84
2022/01/05 11:44:58;;;;;;;14.20;3.20;;;;;;;;;;5058575;28;20563;-83
2022/01/05 11:47:24;;;;;;;17.17;3.33;;;;;;;;;;5055139;28;20040;-83
2022/01/05 11:49:52;;;;;;;15.55;4.07;;;;;;;;;;5064481;28;20036;-85
2022/01/05 11:52:18;;;;;;;17.42;4.50;;;;;;;;;;5075709;28;20051;-84
2022/01/05 11:55:05;;;;;;;18.23;3.60;;;;;;;;;;5085620;28;20059;-86
2022/01/05 11:57:31;;;;;;;16.20;3.90;;;;;;;;;;5075595;28;20047;-85
2022/01/05 12:00:17;;;;;;;24.98;4.10;;;;;;;;;;5084697;28;20093;-85
2022/01/05 12:02:43;;;;;;;26.50;5.22;;;;;;;;;;5083391;28;20039;-85
2022/01/05 12:05:09;;;;;;;23.60;3.60;;;;;;;;;;5058092;28;20036;-85
2022/01/05 12:07:40;;;;;;;18.92;4.22;;;;;;;;;;5078176;28;20043;-86
2022/01/05 12:10:17;;;;;;;18.77;4.35;;;;;;;;;;5067196;28;20119;-84
2022/01/05 12:13:02;;;;;;;15.15;3.67;;;;;;;;;;5080748;28;20036;-83
2022/01/05 12:15:53;;;;;;;19.08;3.58;;;;;;;;;;5075516;28;20032;-84
2022/01/05 12:18:25;;;;;;;12.68;2.72;;;;;;;;;;5071283;28;20576;-83
2022/01/05 12:20:52;;;;;;;16.05;3.58;;;;;;;;;;5078749;28;20048;-85
2022/01/05 12:23:18;;;;;;;16.05;2.55;;;;;;;;;;5061836;28;20036;-84
2022/01/05 12:26:07;;;;;;;12.85;2.97;;;;;;;;;;5082315;28;20085;-83
2022/01/05 12:28:36;;;;;;;15.93;3.75;;;;;;;;;;5090531;28;20437;-85
2022/01/05 12:31:02;;;;;;;15.18;2.88;;;;;;;;;;5087905;28;20075;-83
2022/01/05 12:33:42;;;;;;;14.13;3.30;;;;;;;;;;5084052;28;20046;-84
2022/01/05 12:36:08;;;;;;;21.40;3.72;;;;;;;;;;5077720;28;20039;-84
2022/01/05 12:38:36;;;;;;;12.52;2.70;;;;;;;;;;5070262;28;20043;-85
2022/01/05 12:41:26;;;;;;;16.75;3.25;;;;;;;;;;5089304;28;20085;-85
2022/01/05 12:43:54;;;;;;;15.88;2.45;;;;;;;;;;5076701;28;20054;-84
2022/01/05 12:46:42;;;;;;;11.45;3.03;;;;;;;;;;5063934;28;20498;-84
2022/01/05 12:49:13;;;;;;;13.70;2.75;;;;;;;;;;5066356;28;20039;-84
2022/01/05 12:51:40;;;;;;;10.90;2.65;;;;;;;;;;5089609;28;20044;-84
2022/01/05 12:54:08;;;;;;;14.00;2.78;;;;;;;;;;5093554;28;20044;-85
2022/01/05 12:56:41;;;;;;;16.23;3.67;;;;;;;;;;5084534;28;20048;-82
2022/01/05 12:59:09;;;;;;;16.65;2.65;;;;;;;;;;5090489;28;20032;-82
2022/01/05 13:01:36;;;;;;;16.60;3.97;;;;;;;;;;5090952;28;20085;-81
2022/01/05 13:04:08;;;;;;;16.63;3.25;;;;;;;;;;5079926;28;20122;-84
2022/01/05 13:06:35;;;;;;;14.90;3.05;;;;;;;;;;5083154;28;20039;-84
2022/01/05 13:09:07;;;;;;;16.10;2.88;;;;;;;;;;5087818;28;20088;-85
2022/01/05 13:11:42;;;;;;;13.07;2.58;;;;;;;;;;5066814;28;20035;-85
2022/01/05 13:14:18;;;;;;;15.13;3.35;;;;;;;;;;5083779;28;20487;-84
2022/01/05 13:16:50;;;;;;;25.50;3.83;;;;;;;;;;5069234;28;20281;-85
2022/01/05 13:19:22;;;;;;;23.58;4.30;;;;;;;;;;5064147;28;20336;-84
2022/01/05 13:21:48;;;;;;;18.85;3.40;;;;;;;;;;5081251;28;20066;-84
2022/01/05 13:24:15;;;;;;;19.00;4.22;;;;;;;;;;5090015;28;20070;-85
2022/01/05 13:26:59;;;;;;;20.10;4.10;;;;;;;;;;5087168;28;20031;-84
2022/01/05 13:29:28;;;;;;;19.10;3.70;;;;;;;;;;5085727;28;20109;-86
2022/01/05 13:31:55;;;;;;;19.05;4.32;;;;;;;;;;5080654;28;20036;-83
2022/01/05 13:34:35;;;;;;;19.83;3.67;;;;;;;;;;5082196;28;20123;-83
2022/01/05 13:37:02;;;;;;;13.43;3.22;;;;;;;;;;5084346;28;20494;-86
2022/01/05 13:39:47;;;;;;;18.67;3.78;;;;;;;;;;5084036;28;20394;-84
2022/01/05 13:42:29;;;;;;;17.15;3.70;;;;;;;;;;5080962;28;20385;-86
2022/01/05 13:44:55;;;;;;;16.95;3.67;;;;;;;;;;5071132;28;20507;-85
2022/01/05 13:47:23;;;;;;;19.27;3.88;;;;;;;;;;5071523;28;20080;-85
2022/01/05 13:50:09;;;;;;;14.70;2.85;;;;;;;;;;5085829;28;20560;-83
2022/01/05 13:52:36;;;;;;;12.05;2.33;;;;;;;;;;5067625;28;20047;-83
2022/01/05 13:55:02;;;;;;;22.45;3.58;;;;;;;;;;5082780;28;20088;-85
2022/01/05 13:57:33;;;;;;;12.63;2.92;;;;;;;;;;5074874;28;20039;-84
2022/01/05 14:00:01;;;;;;;13.05;3.17;;;;;;;;;;5085413;28;20051;-85
2022/01/05 14:02:28;;;;;;;15.95;3.10;;;;;;;;;;5067089;28;20036;-85
2022/01/05 14:04:55;;;;;;;12.98;3.05;;;;;;;;;;5081360;28;20040;-84
2022/01/05 14:07:23;;;;;;;14.68;2.33;;;;;;;;;;5066558;28;20068;-86
2022/01/05 14:10:22;;;;;;;13.55;3.13;;;;;;;;;;5084219;28;20189;-83
2022/01/05 14:12:49;;;;;;;13.00;2.10;;;;;;;;;;5044508;28;20148;-85
2022/01/05 14:15:16;;;;;;;11.90;2.60;;;;;;;;;;5072014;28;20097;-83
2022/01/05 14:18:18;;;;;;;15.60;2.92;;;;;;;;;;5090073;28;20051;-83
2022/01/05 14:20:45;;;;;;;10.73;2.60;;;;;;;;;;5012158;28;20135;-84
2022/01/05 14:23:12;;;;;;;13.32;2.80;;;;;;;;;;5071449;28;20059;-82
2022/01/05 14:25:40;;;;;;;10.00;2.35;;;;;;;;;;5084712;28;20046;-84
2022/01/05 14:28:26;;;;;;;8.50;2.03;;;;;;;;;;5073322;28;20032;-84
2022/01/05 14:30:54;;;;;;;9.85;1.83;;;;;;;;;;5082556;28;20034;-81
2022/01/05 14:33:30;;;;;;;8.15;2.17;;;;;;;;;;5076191;28;20278;-85
2022/01/05 14:35:56;;;;;;;14.40;2.63;;;;;;;;;;5079669;28;20032;-84
2022/01/05 14:38:23;;;;;;;11.88;2.22;;;;;;;;;;5057302;28;20047;-85
2022/01/05 14:40:49;;;;;;;14.55;2.50;;;;;;;;;;5079416;28;20035;-85
2022/01/05 14:43:18;;;;;;;14.95;2.53;;;;;;;;;;5087910;28;20036;-85
2022/01/05 14:45:45;;;;;;;16.48;2.50;;;;;;;;;;5082884;28;20044;-85
2022/01/05 14:48:11;;;;;;;15.18;2.47;;;;;;;;;;5087957;28;20487;-84
2022/01/05 14:50:38;;;;;;;15.52;3.85;;;;;;;;;;5080212;28;20047;-85
2022/01/05 14:53:05;;;;;;;14.80;3.10;;;;;;;;;;5063317;28;20119;-85
2022/01/05 14:55:31;;;;;;;17.50;3.17;;;;;;;;;;5074318;28;20035;-85
2022/01/05 14:57:57;;;;;;;16.80;4.18;;;;;;;;;;5059870;28;20419;-86
2022/01/05 15:00:26;;;;;;;18.70;3.55;;;;;;;;;;5080436;28;20036;-83
2022/01/05 15:02:53;;;;;;;17.10;4.57;;;;;;;;;;5092558;28;20043;-84
2022/01/05 15:05:19;;;;;;;20.20;4.03;;;;;;;;;;5094611;28;20066;-85
2022/01/05 15:07:45;;;;;;;23.95;4.57;;;;;;;;;;5070672;28;20048;-85
2022/01/05 15:10:12;;;;;;;19.10;3.75;;;;;;;;;;5076961;28;20075;-84
2022/01/05 15:12:38;;;;;;;16.13;3.72;;;;;;;;;;5086651;28;20059;-83
2022/01/05 15:15:05;;;;;;;18.38;5.13;;;;;;;;;;5077962;28;20111;-84
2022/01/05 15:17:31;;;;;;;20.77;4.10;;;;;;;;;;5076704;28;20164;-85